sensor_id;sensor_type;location;lat;lon;timestamp;temperature;humidity
5842;DHT22;2947;52.276;9.946;2023-05-20T00:00:08;12.70;99.90
5842;DHT22;2947;52.276;9.946;2023-05-20T00:02:35;12.70;99.90
5842;DHT22;2947;52.276;9.946;2023-05-20T00:05:01;12.60;99.90
5842;DHT22;2947;52.276;9.946;2023-05-20T00:07:27;12.60;99.90
5842;DHT22;2947;52.276;9.946;2023-05-20T00:09:53;12.60;99.90
5842;DHT22;2947;52.276;9.946;2023-05-20T00:12:18;12.50;99.90
5842;DHT22;2947;52.276;9.946;2023-05-20T00:14:44;12.60;99.90
5842;DHT22;2947;52.276;9.946;2023-05-20T00:17:10;12.50;99.90
5842;DHT22;2947;52.276;9.946;2023-05-20T00:19:36;12.50;99.90
5842;DHT22;2947;52.276;9.946;2023-05-20T00:22:01;12.40;99.90
5842;DHT22;2947;52.276;9.946;2023-05-20T00:24:27;12.30;99.90
5842;DHT22;2947;52.276;9.946;2023-05-20T00:26:53;12.30;99.90
5842;DHT22;2947;52.276;9.946;2023-05-20T00:29:21;12.20;99.90
5842;DHT22;2947;52.276;9.946;2023-05-20T00:31:47;12.20;99.90
5842;DHT22;2947;52.276;9.946;2023-05-20T00:34:13;12.20;99.90
5842;DHT22;2947;52.276;9.946;2023-05-20T00:36:39;12.10;99.90
5842;DHT22;2947;52.276;9.946;2023-05-20T00:39:04;12.10;99.90
5842;DHT22;2947;52.276;9.946;2023-05-20T00:41:31;12.20;99.90
5842;DHT22;2947;52.276;9.946;2023-05-20T00:43:56;12.10;99.90
5842;DHT22;2947;52.276;9.946;2023-05-20T00:46:23;12.10;99.90
5842;DHT22;2947;52.276;9.946;2023-05-20T00:48:50;12.00;99.90
5842;DHT22;2947;52.276;9.946;2023-05-20T00:51:16;12.00;99.90
5842;DHT22;2947;52.276;9.946;2023-05-20T00:53:42;12.00;99.90
5842;DHT22;2947;52.276;9.946;2023-05-20T00:56:08;12.00;99.90
5842;DHT22;2947;52.276;9.946;2023-05-20T00:58:34;11.90;99.90
5842;DHT22;2947;52.276;9.946;2023-05-20T01:01:02;11.90;99.90
5842;DHT22;2947;52.276;9.946;2023-05-20T01:03:28;11.90;99.90
5842;DHT22;2947;52.276;9.946;2023-05-20T01:05:54;11.90;99.90
5842;DHT22;2947;52.276;9.946;2023-05-20T01:08:22;11.80;1.00
5842;DHT22;2947;52.276;9.946;2023-05-20T01:10:52;11.90;1.00
5842;DHT22;2947;52.276;9.946;2023-05-20T01:13:47;11.80;1.00
5842;DHT22;2947;52.276;9.946;2023-05-20T01:16:17;11.80;1.00
5842;DHT22;2947;52.276;9.946;2023-05-20T01:18:44;11.70;1.00
5842;DHT22;2947;52.276;9.946;2023-05-20T01:21:13;11.70;1.00
5842;DHT22;2947;52.276;9.946;2023-05-20T01:23:40;11.70;1.00
5842;DHT22;2947;52.276;9.946;2023-05-20T01:26:07;11.70;1.00
5842;DHT22;2947;52.276;9.946;2023-05-20T01:28:34;11.60;1.00
5842;DHT22;2947;52.276;9.946;2023-05-20T01:31:02;11.60;61.30
5842;DHT22;2947;52.276;9.946;2023-05-20T01:33:31;11.50;99.90
5842;DHT22;2947;52.276;9.946;2023-05-20T01:36:00;11.40;99.90
5842;DHT22;2947;52.276;9.946;2023-05-20T01:38:27;11.40;1.00
5842;DHT22;2947;52.276;9.946;2023-05-20T01:40:53;11.30;1.00
5842;DHT22;2947;52.276;9.946;2023-05-20T01:43:20;11.40;1.00
5842;DHT22;2947;52.276;9.946;2023-05-20T01:45:46;11.30;44.80
5842;DHT22;2947;52.276;9.946;2023-05-20T01:48:13;11.20;99.90
5842;DHT22;2947;52.276;9.946;2023-05-20T01:50:39;11.20;99.90
5842;DHT22;2947;52.276;9.946;2023-05-20T01:53:05;11.20;99.90
5842;DHT22;2947;52.276;9.946;2023-05-20T01:55:34;11.20;99.90
5842;DHT22;2947;52.276;9.946;2023-05-20T01:58:00;11.10;1.00
5842;DHT22;2947;52.276;9.946;2023-05-20T02:00:26;11.10;1.00
5842;DHT22;2947;52.276;9.946;2023-05-20T02:02:52;11.10;1.00
5842;DHT22;2947;52.276;9.946;2023-05-20T02:05:17;11.00;1.00
5842;DHT22;2947;52.276;9.946;2023-05-20T02:07:43;11.10;1.00
5842;DHT22;2947;52.276;9.946;2023-05-20T02:10:09;11.10;43.90
5842;DHT22;2947;52.276;9.946;2023-05-20T02:12:35;11.00;39.20
5842;DHT22;2947;52.276;9.946;2023-05-20T02:15:01;11.10;17.20
5842;DHT22;2947;52.276;9.946;2023-05-20T02:17:26;11.00;99.90
5842;DHT22;2947;52.276;9.946;2023-05-20T02:19:52;11.00;99.90
5842;DHT22;2947;52.276;9.946;2023-05-20T02:22:18;11.00;99.90
5842;DHT22;2947;52.276;9.946;2023-05-20T02:24:43;10.90;99.90
5842;DHT22;2947;52.276;9.946;2023-05-20T02:27:09;10.90;99.90
5842;DHT22;2947;52.276;9.946;2023-05-20T02:29:35;10.90;99.90
5842;DHT22;2947;52.276;9.946;2023-05-20T02:32:01;10.90;99.90
5842;DHT22;2947;52.276;9.946;2023-05-20T02:34:27;10.90;99.90
5842;DHT22;2947;52.276;9.946;2023-05-20T02:36:54;10.80;99.90
5842;DHT22;2947;52.276;9.946;2023-05-20T02:39:20;10.80;99.90
5842;DHT22;2947;52.276;9.946;2023-05-20T02:41:46;10.80;99.90
5842;DHT22;2947;52.276;9.946;2023-05-20T02:44:12;10.80;99.90
5842;DHT22;2947;52.276;9.946;2023-05-20T02:46:38;10.80;99.90
5842;DHT22;2947;52.276;9.946;2023-05-20T02:49:03;10.80;99.90
5842;DHT22;2947;52.276;9.946;2023-05-20T02:51:29;10.80;1.00
5842;DHT22;2947;52.276;9.946;2023-05-20T02:53:57;10.80;1.00
5842;DHT22;2947;52.276;9.946;2023-05-20T02:56:23;10.80;99.90
5842;DHT22;2947;52.276;9.946;2023-05-20T02:58:49;10.80;99.90
5842;DHT22;2947;52.276;9.946;2023-05-20T03:01:15;10.80;1.00
5842;DHT22;2947;52.276;9.946;2023-05-20T03:03:41;10.80;1.00
5842;DHT22;2947;52.276;9.946;2023-05-20T03:06:07;10.80;1.00
5842;DHT22;2947;52.276;9.946;2023-05-20T03:08:33;10.80;21.80
5842;DHT22;2947;52.276;9.946;2023-05-20T03:11:00;10.80;1.00
5842;DHT22;2947;52.276;9.946;2023-05-20T03:13:26;10.80;1.00
5842;DHT22;2947;52.276;9.946;2023-05-20T03:15:52;10.80;1.00
5842;DHT22;2947;52.276;9.946;2023-05-20T03:18:18;10.80;1.00
5842;DHT22;2947;52.276;9.946;2023-05-20T03:20:45;10.80;1.00
5842;DHT22;2947;52.276;9.946;2023-05-20T03:23:11;10.90;99.90
5842;DHT22;2947;52.276;9.946;2023-05-20T03:25:37;10.90;99.90
5842;DHT22;2947;52.276;9.946;2023-05-20T03:28:04;10.90;99.90
5842;DHT22;2947;52.276;9.946;2023-05-20T03:30:31;11.00;99.90
5842;DHT22;2947;52.276;9.946;2023-05-20T03:32:57;11.00;99.90
5842;DHT22;2947;52.276;9.946;2023-05-20T03:35:23;11.00;99.90
5842;DHT22;2947;52.276;9.946;2023-05-20T03:37:49;11.00;99.90
5842;DHT22;2947;52.276;9.946;2023-05-20T03:40:18;11.00;99.90
5842;DHT22;2947;52.276;9.946;2023-05-20T03:42:47;11.10;99.90
5842;DHT22;2947;52.276;9.946;2023-05-20T03:45:15;11.10;68.20
5842;DHT22;2947;52.276;9.946;2023-05-20T03:47:41;11.10;1.00
5842;DHT22;2947;52.276;9.946;2023-05-20T03:50:06;11.10;1.00
5842;DHT22;2947;52.276;9.946;2023-05-20T03:52:32;11.20;1.00
5842;DHT22;2947;52.276;9.946;2023-05-20T03:54:59;11.10;67.70
5842;DHT22;2947;52.276;9.946;2023-05-20T03:57:24;11.10;1.00
5842;DHT22;2947;52.276;9.946;2023-05-20T03:59:50;11.20;1.00
5842;DHT22;2947;52.276;9.946;2023-05-20T04:02:16;11.20;1.00
5842;DHT22;2947;52.276;9.946;2023-05-20T04:04:42;11.20;1.00
5842;DHT22;2947;52.276;9.946;2023-05-20T04:07:09;11.20;1.00
5842;DHT22;2947;52.276;9.946;2023-05-20T04:09:36;11.30;1.00
5842;DHT22;2947;52.276;9.946;2023-05-20T04:12:02;11.30;1.00
5842;DHT22;2947;52.276;9.946;2023-05-20T04:14:28;11.30;1.00
5842;DHT22;2947;52.276;9.946;2023-05-20T04:16:54;11.30;1.00
5842;DHT22;2947;52.276;9.946;2023-05-20T04:19:20;11.20;1.00
5842;DHT22;2947;52.276;9.946;2023-05-20T04:21:48;11.30;1.00
5842;DHT22;2947;52.276;9.946;2023-05-20T04:24:14;11.30;1.00
5842;DHT22;2947;52.276;9.946;2023-05-20T04:26:39;11.30;1.00
5842;DHT22;2947;52.276;9.946;2023-05-20T04:29:05;11.30;1.00
5842;DHT22;2947;52.276;9.946;2023-05-20T04:31:31;11.30;1.00
5842;DHT22;2947;52.276;9.946;2023-05-20T04:33:57;11.30;1.00
5842;DHT22;2947;52.276;9.946;2023-05-20T04:36:24;11.40;1.00
5842;DHT22;2947;52.276;9.946;2023-05-20T04:38:56;11.40;1.00
5842;DHT22;2947;52.276;9.946;2023-05-20T04:41:22;11.40;1.00
5842;DHT22;2947;52.276;9.946;2023-05-20T04:43:48;11.50;1.00
5842;DHT22;2947;52.276;9.946;2023-05-20T04:46:15;11.50;1.00
5842;DHT22;2947;52.276;9.946;2023-05-20T04:48:41;11.50;1.00
5842;DHT22;2947;52.276;9.946;2023-05-20T04:51:08;11.50;1.00
5842;DHT22;2947;52.276;9.946;2023-05-20T04:53:35;11.60;1.00
5842;DHT22;2947;52.276;9.946;2023-05-20T04:56:01;11.50;1.00
5842;DHT22;2947;52.276;9.946;2023-05-20T04:58:27;11.60;54.10
5842;DHT22;2947;52.276;9.946;2023-05-20T05:00:53;11.60;1.00
5842;DHT22;2947;52.276;9.946;2023-05-20T05:03:20;11.60;26.20
5842;DHT22;2947;52.276;9.946;2023-05-20T05:05:46;11.60;1.00
5842;DHT22;2947;52.276;9.946;2023-05-20T05:08:12;11.60;1.00
5842;DHT22;2947;52.276;9.946;2023-05-20T05:10:38;11.60;1.00
5842;DHT22;2947;52.276;9.946;2023-05-20T05:13:04;11.70;20.90
5842;DHT22;2947;52.276;9.946;2023-05-20T05:15:30;11.60;1.00
5842;DHT22;2947;52.276;9.946;2023-05-20T05:17:56;11.70;50.60
5842;DHT22;2947;52.276;9.946;2023-05-20T05:20:21;11.60;23.40
5842;DHT22;2947;52.276;9.946;2023-05-20T05:22:47;11.70;53.20
5842;DHT22;2947;52.276;9.946;2023-05-20T05:25:15;11.70;1.40
5842;DHT22;2947;52.276;9.946;2023-05-20T05:27:41;11.70;26.90
5842;DHT22;2947;52.276;9.946;2023-05-20T05:30:07;11.70;99.90
5842;DHT22;2947;52.276;9.946;2023-05-20T05:32:35;11.80;99.90
5842;DHT22;2947;52.276;9.946;2023-05-20T05:35:01;11.70;99.90
5842;DHT22;2947;52.276;9.946;2023-05-20T05:37:26;11.80;99.90
5842;DHT22;2947;52.276;9.946;2023-05-20T05:39:52;11.70;1.00
5842;DHT22;2947;52.276;9.946;2023-05-20T05:42:18;11.80;1.00
5842;DHT22;2947;52.276;9.946;2023-05-20T05:44:43;11.80;1.00
5842;DHT22;2947;52.276;9.946;2023-05-20T05:47:09;11.80;15.20
5842;DHT22;2947;52.276;9.946;2023-05-20T05:49:35;11.80;99.90
5842;DHT22;2947;52.276;9.946;2023-05-20T05:52:00;11.90;99.90
5842;DHT22;2947;52.276;9.946;2023-05-20T05:54:26;11.80;99.90
5842;DHT22;2947;52.276;9.946;2023-05-20T05:56:52;11.90;99.90
5842;DHT22;2947;52.276;9.946;2023-05-20T05:59:18;11.90;99.90
5842;DHT22;2947;52.276;9.946;2023-05-20T06:01:44;12.00;99.90
5842;DHT22;2947;52.276;9.946;2023-05-20T06:04:10;12.00;99.90
5842;DHT22;2947;52.276;9.946;2023-05-20T06:06:36;12.00;99.90
5842;DHT22;2947;52.276;9.946;2023-05-20T06:09:02;12.00;99.90
5842;DHT22;2947;52.276;9.946;2023-05-20T06:11:28;12.10;1.00
5842;DHT22;2947;52.276;9.946;2023-05-20T06:13:54;12.10;1.00
5842;DHT22;2947;52.276;9.946;2023-05-20T06:16:19;12.20;1.00
5842;DHT22;2947;52.276;9.946;2023-05-20T06:18:45;12.20;1.00
5842;DHT22;2947;52.276;9.946;2023-05-20T06:21:11;12.30;1.00
5842;DHT22;2947;52.276;9.946;2023-05-20T06:23:37;12.40;1.00
5842;DHT22;2947;52.276;9.946;2023-05-20T06:26:03;12.40;99.90
5842;DHT22;2947;52.276;9.946;2023-05-20T06:28:29;12.40;99.90
5842;DHT22;2947;52.276;9.946;2023-05-20T06:30:55;12.50;99.90
5842;DHT22;2947;52.276;9.946;2023-05-20T06:33:25;12.50;59.40
5842;DHT22;2947;52.276;9.946;2023-05-20T06:35:53;12.50;1.00
5842;DHT22;2947;52.276;9.946;2023-05-20T06:38:19;12.60;1.00
5842;DHT22;2947;52.276;9.946;2023-05-20T06:40:45;12.60;1.00
5842;DHT22;2947;52.276;9.946;2023-05-20T06:43:13;12.70;1.00
5842;DHT22;2947;52.276;9.946;2023-05-20T06:45:38;12.80;1.00
5842;DHT22;2947;52.276;9.946;2023-05-20T06:48:04;12.90;99.90
5842;DHT22;2947;52.276;9.946;2023-05-20T06:50:30;12.90;99.90
5842;DHT22;2947;52.276;9.946;2023-05-20T06:52:56;13.00;99.90
5842;DHT22;2947;52.276;9.946;2023-05-20T06:55:22;13.00;99.90
5842;DHT22;2947;52.276;9.946;2023-05-20T06:57:48;13.20;99.90
5842;DHT22;2947;52.276;9.946;2023-05-20T07:00:13;13.20;99.90
5842;DHT22;2947;52.276;9.946;2023-05-20T07:02:39;13.40;99.90
5842;DHT22;2947;52.276;9.946;2023-05-20T07:05:06;13.50;99.90
5842;DHT22;2947;52.276;9.946;2023-05-20T07:07:32;13.60;1.00
5842;DHT22;2947;52.276;9.946;2023-05-20T07:09:58;13.80;1.00
5842;DHT22;2947;52.276;9.946;2023-05-20T07:12:24;14.00;99.90
5842;DHT22;2947;52.276;9.946;2023-05-20T07:14:50;14.20;99.90
5842;DHT22;2947;52.276;9.946;2023-05-20T07:17:18;14.30;1.00
5842;DHT22;2947;52.276;9.946;2023-05-20T07:19:44;14.60;1.00
5842;DHT22;2947;52.276;9.946;2023-05-20T07:22:10;14.80;1.00
5842;DHT22;2947;52.276;9.946;2023-05-20T07:24:36;15.00;99.90
5842;DHT22;2947;52.276;9.946;2023-05-20T07:27:02;15.10;99.90
5842;DHT22;2947;52.276;9.946;2023-05-20T07:29:28;15.20;99.90
5842;DHT22;2947;52.276;9.946;2023-05-20T07:31:55;15.40;99.90
5842;DHT22;2947;52.276;9.946;2023-05-20T07:34:21;15.40;1.00
5842;DHT22;2947;52.276;9.946;2023-05-20T07:36:47;15.40;1.00
5842;DHT22;2947;52.276;9.946;2023-05-20T07:39:14;15.50;1.00
5842;DHT22;2947;52.276;9.946;2023-05-20T07:41:40;15.50;1.00
5842;DHT22;2947;52.276;9.946;2023-05-20T07:44:06;15.50;1.00
5842;DHT22;2947;52.276;9.946;2023-05-20T07:46:36;15.50;1.00
5842;DHT22;2947;52.276;9.946;2023-05-20T07:49:06;15.40;1.00
5842;DHT22;2947;52.276;9.946;2023-05-20T07:51:32;15.40;1.00
5842;DHT22;2947;52.276;9.946;2023-05-20T07:53:58;15.30;1.00
5842;DHT22;2947;52.276;9.946;2023-05-20T07:56:23;15.20;1.00
5842;DHT22;2947;52.276;9.946;2023-05-20T07:58:55;15.30;1.00
5842;DHT22;2947;52.276;9.946;2023-05-20T08:01:22;15.50;1.00
5842;DHT22;2947;52.276;9.946;2023-05-20T08:03:49;15.20;1.00
5842;DHT22;2947;52.276;9.946;2023-05-20T08:06:14;15.30;1.00
5842;DHT22;2947;52.276;9.946;2023-05-20T08:08:41;15.30;1.00
5842;DHT22;2947;52.276;9.946;2023-05-20T08:11:07;15.30;1.00
5842;DHT22;2947;52.276;9.946;2023-05-20T08:13:34;15.40;1.00
5842;DHT22;2947;52.276;9.946;2023-05-20T08:16:00;15.50;1.00
5842;DHT22;2947;52.276;9.946;2023-05-20T08:18:28;15.40;1.00
5842;DHT22;2947;52.276;9.946;2023-05-20T08:20:54;15.30;1.00
5842;DHT22;2947;52.276;9.946;2023-05-20T08:23:20;15.20;1.00
5842;DHT22;2947;52.276;9.946;2023-05-20T08:25:45;15.10;1.00
5842;DHT22;2947;52.276;9.946;2023-05-20T08:28:12;15.10;1.00
5842;DHT22;2947;52.276;9.946;2023-05-20T08:30:38;15.10;1.00
5842;DHT22;2947;52.276;9.946;2023-05-20T08:33:04;15.10;1.00
5842;DHT22;2947;52.276;9.946;2023-05-20T08:35:30;15.10;1.00
5842;DHT22;2947;52.276;9.946;2023-05-20T08:37:56;15.10;1.00
5842;DHT22;2947;52.276;9.946;2023-05-20T08:40:22;15.10;1.00
5842;DHT22;2947;52.276;9.946;2023-05-20T08:42:49;15.10;1.00
5842;DHT22;2947;52.276;9.946;2023-05-20T08:45:18;15.10;1.00
5842;DHT22;2947;52.276;9.946;2023-05-20T08:47:45;15.10;1.00
5842;DHT22;2947;52.276;9.946;2023-05-20T08:50:12;15.10;1.00
5842;DHT22;2947;52.276;9.946;2023-05-20T08:52:47;15.00;1.00
5842;DHT22;2947;52.276;9.946;2023-05-20T08:55:36;14.90;1.00
5842;DHT22;2947;52.276;9.946;2023-05-20T08:58:06;14.90;1.00
5842;DHT22;2947;52.276;9.946;2023-05-20T09:00:32;14.90;1.00
5842;DHT22;2947;52.276;9.946;2023-05-20T09:02:58;15.00;1.00
5842;DHT22;2947;52.276;9.946;2023-05-20T09:05:24;15.00;1.00
5842;DHT22;2947;52.276;9.946;2023-05-20T09:07:51;15.00;1.00
5842;DHT22;2947;52.276;9.946;2023-05-20T09:10:18;15.00;1.00
5842;DHT22;2947;52.276;9.946;2023-05-20T09:12:45;15.00;1.00
5842;DHT22;2947;52.276;9.946;2023-05-20T09:15:10;15.10;1.00
5842;DHT22;2947;52.276;9.946;2023-05-20T09:17:37;15.20;1.00
5842;DHT22;2947;52.276;9.946;2023-05-20T09:20:08;15.20;1.00
5842;DHT22;2947;52.276;9.946;2023-05-20T09:22:35;15.20;1.00
5842;DHT22;2947;52.276;9.946;2023-05-20T09:25:02;15.30;1.00
5842;DHT22;2947;52.276;9.946;2023-05-20T09:27:28;15.40;1.00
5842;DHT22;2947;52.276;9.946;2023-05-20T09:29:54;15.60;1.00
5842;DHT22;2947;52.276;9.946;2023-05-20T09:32:20;15.70;1.00
5842;DHT22;2947;52.276;9.946;2023-05-20T09:34:48;15.70;1.00
5842;DHT22;2947;52.276;9.946;2023-05-20T09:37:17;15.70;1.00
5842;DHT22;2947;52.276;9.946;2023-05-20T09:39:54;15.80;1.00
5842;DHT22;2947;52.276;9.946;2023-05-20T09:42:51;15.80;1.00
5842;DHT22;2947;52.276;9.946;2023-05-20T09:45:21;15.90;1.00
5842;DHT22;2947;52.276;9.946;2023-05-20T09:47:50;16.10;1.00
5842;DHT22;2947;52.276;9.946;2023-05-20T09:50:16;16.20;1.00
5842;DHT22;2947;52.276;9.946;2023-05-20T09:52:49;16.30;1.00
5842;DHT22;2947;52.276;9.946;2023-05-20T09:55:17;16.40;1.00
5842;DHT22;2947;52.276;9.946;2023-05-20T09:57:44;16.40;1.00
5842;DHT22;2947;52.276;9.946;2023-05-20T10:00:11;16.40;1.00
5842;DHT22;2947;52.276;9.946;2023-05-20T10:02:47;16.50;1.00
5842;DHT22;2947;52.276;9.946;2023-05-20T10:05:19;16.50;1.00
5842;DHT22;2947;52.276;9.946;2023-05-20T10:13:44;16.80;1.00
5842;DHT22;2947;52.276;9.946;2023-05-20T10:16:45;16.90;99.90
5842;DHT22;2947;52.276;9.946;2023-05-20T10:22:14;17.20;99.90
5842;DHT22;2947;52.276;9.946;2023-05-20T10:24:43;17.30;99.90
5842;DHT22;2947;52.276;9.946;2023-05-20T10:27:11;17.30;99.90
5842;DHT22;2947;52.276;9.946;2023-05-20T10:29:54;17.30;99.90
5842;DHT22;2947;52.276;9.946;2023-05-20T10:32:56;17.20;99.90
5842;DHT22;2947;52.276;9.946;2023-05-20T10:35:25;17.20;99.90
5842;DHT22;2947;52.276;9.946;2023-05-20T10:37:53;17.30;99.90
5842;DHT22;2947;52.276;9.946;2023-05-20T10:40:21;17.30;99.90
5842;DHT22;2947;52.276;9.946;2023-05-20T10:42:47;17.50;99.90
5842;DHT22;2947;52.276;9.946;2023-05-20T10:45:27;17.40;99.90
5842;DHT22;2947;52.276;9.946;2023-05-20T10:47:54;17.40;99.90
5842;DHT22;2947;52.276;9.946;2023-05-20T10:50:35;17.20;99.90
5842;DHT22;2947;52.276;9.946;2023-05-20T10:53:06;17.10;99.90
5842;DHT22;2947;52.276;9.946;2023-05-20T10:55:40;17.30;99.90
5842;DHT22;2947;52.276;9.946;2023-05-20T10:58:11;17.20;99.90
5842;DHT22;2947;52.276;9.946;2023-05-20T11:00:38;17.20;99.90
5842;DHT22;2947;52.276;9.946;2023-05-20T11:03:05;17.30;99.90
5842;DHT22;2947;52.276;9.946;2023-05-20T11:05:31;17.20;99.90
5842;DHT22;2947;52.276;9.946;2023-05-20T11:08:02;17.30;99.90
5842;DHT22;2947;52.276;9.946;2023-05-20T11:10:29;17.30;99.90
5842;DHT22;2947;52.276;9.946;2023-05-20T11:12:56;17.30;99.90
5842;DHT22;2947;52.276;9.946;2023-05-20T11:15:22;17.30;99.90
5842;DHT22;2947;52.276;9.946;2023-05-20T11:17:54;17.20;99.90
5842;DHT22;2947;52.276;9.946;2023-05-20T11:20:25;17.20;99.90
5842;DHT22;2947;52.276;9.946;2023-05-20T11:22:51;17.20;99.90
5842;DHT22;2947;52.276;9.946;2023-05-20T11:25:17;17.10;99.90
5842;DHT22;2947;52.276;9.946;2023-05-20T11:27:44;17.10;99.90
5842;DHT22;2947;52.276;9.946;2023-05-20T11:30:12;17.10;99.90
5842;DHT22;2947;52.276;9.946;2023-05-20T11:32:43;17.10;99.90
5842;DHT22;2947;52.276;9.946;2023-05-20T11:35:21;17.00;99.90
5842;DHT22;2947;52.276;9.946;2023-05-20T11:38:06;17.00;99.90
5842;DHT22;2947;52.276;9.946;2023-05-20T11:40:33;17.00;99.90
5842;DHT22;2947;52.276;9.946;2023-05-20T11:43:01;17.10;99.90
5842;DHT22;2947;52.276;9.946;2023-05-20T11:45:41;17.10;99.90
5842;DHT22;2947;52.276;9.946;2023-05-20T11:48:08;17.10;99.90
5842;DHT22;2947;52.276;9.946;2023-05-20T11:50:41;17.10;99.90
5842;DHT22;2947;52.276;9.946;2023-05-20T11:53:09;17.00;99.90
5842;DHT22;2947;52.276;9.946;2023-05-20T11:55:49;17.00;99.90
5842;DHT22;2947;52.276;9.946;2023-05-20T11:58:21;16.90;99.90
5842;DHT22;2947;52.276;9.946;2023-05-20T12:00:49;16.80;99.90
5842;DHT22;2947;52.276;9.946;2023-05-20T12:03:15;16.80;99.90
5842;DHT22;2947;52.276;9.946;2023-05-20T12:05:41;16.80;99.90
5842;DHT22;2947;52.276;9.946;2023-05-20T12:08:07;16.90;99.90
5842;DHT22;2947;52.276;9.946;2023-05-20T12:10:33;16.90;99.90
5842;DHT22;2947;52.276;9.946;2023-05-20T12:13:01;16.90;99.90
5842;DHT22;2947;52.276;9.946;2023-05-20T12:15:27;17.00;99.90
5842;DHT22;2947;52.276;9.946;2023-05-20T12:17:55;16.80;99.90
5842;DHT22;2947;52.276;9.946;2023-05-20T12:20:22;16.80;99.90
5842;DHT22;2947;52.276;9.946;2023-05-20T12:22:49;16.80;99.90
5842;DHT22;2947;52.276;9.946;2023-05-20T12:25:16;16.80;99.90
5842;DHT22;2947;52.276;9.946;2023-05-20T12:27:44;16.90;99.90
5842;DHT22;2947;52.276;9.946;2023-05-20T12:30:15;16.80;99.90
5842;DHT22;2947;52.276;9.946;2023-05-20T12:32:42;16.90;99.90
5842;DHT22;2947;52.276;9.946;2023-05-20T12:35:09;16.80;99.90
5842;DHT22;2947;52.276;9.946;2023-05-20T12:37:36;16.90;99.90
5842;DHT22;2947;52.276;9.946;2023-05-20T12:40:03;16.90;99.90
5842;DHT22;2947;52.276;9.946;2023-05-20T12:42:43;16.90;99.90
5842;DHT22;2947;52.276;9.946;2023-05-20T12:45:09;17.00;99.90
5842;DHT22;2947;52.276;9.946;2023-05-20T12:47:35;17.10;99.90
5842;DHT22;2947;52.276;9.946;2023-05-20T12:50:02;17.00;99.90
5842;DHT22;2947;52.276;9.946;2023-05-20T12:52:28;17.10;99.90
5842;DHT22;2947;52.276;9.946;2023-05-20T12:54:54;17.20;99.90
5842;DHT22;2947;52.276;9.946;2023-05-20T12:57:21;17.20;99.90
5842;DHT22;2947;52.276;9.946;2023-05-20T12:59:48;17.20;99.90
5842;DHT22;2947;52.276;9.946;2023-05-20T13:02:13;17.30;99.90
5842;DHT22;2947;52.276;9.946;2023-05-20T13:04:39;17.30;99.90
5842;DHT22;2947;52.276;9.946;2023-05-20T13:07:05;17.40;99.90
5842;DHT22;2947;52.276;9.946;2023-05-20T13:09:31;17.40;99.90
5842;DHT22;2947;52.276;9.946;2023-05-20T13:11:57;17.50;99.90
5842;DHT22;2947;52.276;9.946;2023-05-20T13:14:23;17.50;99.90
5842;DHT22;2947;52.276;9.946;2023-05-20T13:16:50;17.50;99.90
5842;DHT22;2947;52.276;9.946;2023-05-20T13:19:21;17.60;99.90
5842;DHT22;2947;52.276;9.946;2023-05-20T13:21:48;17.60;99.90
5842;DHT22;2947;52.276;9.946;2023-05-20T13:24:14;17.60;99.90
5842;DHT22;2947;52.276;9.946;2023-05-20T13:26:40;17.70;99.90
5842;DHT22;2947;52.276;9.946;2023-05-20T13:29:06;17.50;99.90
5842;DHT22;2947;52.276;9.946;2023-05-20T13:31:32;17.60;99.90
5842;DHT22;2947;52.276;9.946;2023-05-20T13:33:58;17.60;99.90
5842;DHT22;2947;52.276;9.946;2023-05-20T13:36:25;17.60;99.90
5842;DHT22;2947;52.276;9.946;2023-05-20T13:38:52;17.50;99.90
5842;DHT22;2947;52.276;9.946;2023-05-20T13:41:18;17.60;99.90
5842;DHT22;2947;52.276;9.946;2023-05-20T13:43:43;17.50;99.90
5842;DHT22;2947;52.276;9.946;2023-05-20T13:46:09;17.50;99.90
5842;DHT22;2947;52.276;9.946;2023-05-20T13:48:35;17.40;99.90
5842;DHT22;2947;52.276;9.946;2023-05-20T13:51:01;17.40;99.90
5842;DHT22;2947;52.276;9.946;2023-05-20T13:53:27;18.70;99.90
5842;DHT22;2947;52.276;9.946;2023-05-20T13:55:53;17.40;99.90
5842;DHT22;2947;52.276;9.946;2023-05-20T13:58:19;17.30;99.90
5842;DHT22;2947;52.276;9.946;2023-05-20T14:00:44;17.40;99.90
5842;DHT22;2947;52.276;9.946;2023-05-20T14:03:10;17.30;99.90
5842;DHT22;2947;52.276;9.946;2023-05-20T14:05:36;17.20;99.90
5842;DHT22;2947;52.276;9.946;2023-05-20T14:08:02;17.20;99.90
5842;DHT22;2947;52.276;9.946;2023-05-20T14:10:27;17.30;99.90
5842;DHT22;2947;52.276;9.946;2023-05-20T14:12:55;17.30;99.90
5842;DHT22;2947;52.276;9.946;2023-05-20T14:15:22;17.30;99.90
5842;DHT22;2947;52.276;9.946;2023-05-20T14:17:48;17.40;99.90
5842;DHT22;2947;52.276;9.946;2023-05-20T14:20:14;17.40;99.90
5842;DHT22;2947;52.276;9.946;2023-05-20T14:22:40;17.40;99.90
5842;DHT22;2947;52.276;9.946;2023-05-20T14:25:06;17.40;99.90
5842;DHT22;2947;52.276;9.946;2023-05-20T14:27:32;17.40;99.90
5842;DHT22;2947;52.276;9.946;2023-05-20T14:29:58;17.50;99.90
5842;DHT22;2947;52.276;9.946;2023-05-20T14:32:24;17.50;99.90
5842;DHT22;2947;52.276;9.946;2023-05-20T14:34:50;17.40;99.90
5842;DHT22;2947;52.276;9.946;2023-05-20T14:37:16;17.50;99.90
5842;DHT22;2947;52.276;9.946;2023-05-20T14:39:42;17.40;99.90
5842;DHT22;2947;52.276;9.946;2023-05-20T14:42:08;17.40;99.90
5842;DHT22;2947;52.276;9.946;2023-05-20T14:44:34;17.40;99.90
5842;DHT22;2947;52.276;9.946;2023-05-20T14:46:59;17.40;99.90
5842;DHT22;2947;52.276;9.946;2023-05-20T14:49:25;17.40;99.90
5842;DHT22;2947;52.276;9.946;2023-05-20T14:51:51;17.40;99.90
5842;DHT22;2947;52.276;9.946;2023-05-20T14:54:17;17.50;99.90
5842;DHT22;2947;52.276;9.946;2023-05-20T14:56:43;17.50;99.90
5842;DHT22;2947;52.276;9.946;2023-05-20T14:59:09;17.30;99.90
5842;DHT22;2947;52.276;9.946;2023-05-20T15:01:35;17.40;99.90
5842;DHT22;2947;52.276;9.946;2023-05-20T15:04:02;17.30;99.90
5842;DHT22;2947;52.276;9.946;2023-05-20T15:06:27;17.30;99.90
5842;DHT22;2947;52.276;9.946;2023-05-20T15:08:54;17.40;99.90
5842;DHT22;2947;52.276;9.946;2023-05-20T15:11:21;17.30;99.90
5842;DHT22;2947;52.276;9.946;2023-05-20T15:13:47;17.40;99.90
5842;DHT22;2947;52.276;9.946;2023-05-20T15:16:12;17.30;99.90
5842;DHT22;2947;52.276;9.946;2023-05-20T15:18:38;17.20;99.90
5842;DHT22;2947;52.276;9.946;2023-05-20T15:21:04;17.30;1.00
5842;DHT22;2947;52.276;9.946;2023-05-20T15:23:30;17.30;1.00
5842;DHT22;2947;52.276;9.946;2023-05-20T15:25:56;17.40;1.00
5842;DHT22;2947;52.276;9.946;2023-05-20T15:28:24;17.30;1.00
5842;DHT22;2947;52.276;9.946;2023-05-20T15:30:53;17.40;1.00
5842;DHT22;2947;52.276;9.946;2023-05-20T15:33:19;17.40;1.00
5842;DHT22;2947;52.276;9.946;2023-05-20T15:35:45;17.40;1.00
5842;DHT22;2947;52.276;9.946;2023-05-20T15:38:12;17.40;1.00
5842;DHT22;2947;52.276;9.946;2023-05-20T15:40:39;17.50;1.00
5842;DHT22;2947;52.276;9.946;2023-05-20T15:43:05;17.50;1.00
5842;DHT22;2947;52.276;9.946;2023-05-20T15:45:31;17.60;1.00
5842;DHT22;2947;52.276;9.946;2023-05-20T15:47:57;17.60;1.00
5842;DHT22;2947;52.276;9.946;2023-05-20T15:50:23;17.70;1.00
5842;DHT22;2947;52.276;9.946;2023-05-20T15:52:51;17.70;1.00
5842;DHT22;2947;52.276;9.946;2023-05-20T15:55:17;17.60;1.00
5842;DHT22;2947;52.276;9.946;2023-05-20T15:57:43;17.70;1.00
5842;DHT22;2947;52.276;9.946;2023-05-20T16:00:10;17.70;1.00
5842;DHT22;2947;52.276;9.946;2023-05-20T16:02:37;17.70;1.00
5842;DHT22;2947;52.276;9.946;2023-05-20T16:05:04;17.70;1.00
5842;DHT22;2947;52.276;9.946;2023-05-20T16:07:30;17.80;1.00
5842;DHT22;2947;52.276;9.946;2023-05-20T16:09:56;17.70;1.00
5842;DHT22;2947;52.276;9.946;2023-05-20T16:12:22;17.80;1.00
5842;DHT22;2947;52.276;9.946;2023-05-20T16:14:48;17.80;1.00
5842;DHT22;2947;52.276;9.946;2023-05-20T16:17:14;17.70;1.00